Dallas, Arkansas
Current Conditions -  °F | °C
As of 5:15 PM on Monday 22 Dec 2014 (Local Time) from KMEZ Reporting Station
Broken Clouds Broken Clouds  
Wind Chill: 57°   Ceiling: 2200
Heat Index: 57°   Visibility: 7mi
Dew Point: 54°   Wind: 0mph
Humidity: 88%   Direction: NA
Pressure: 29.57"   Gusts: NA
Location:  34.592°N, 94.1901°W
Report Text: KMEZ 222315Z AUTO 00000KT 7SM SCT015 BKN022 14/12 A2957 RMK AO2
Loading
Personal Weather Stations






























Interactive Weather Map New forecast layout! Learn more

10-Day Weather Forecast

Advertisements
Track Severe Weather on mobile